sensor_id;sensor_type;location;lat;lon;timestamp;temperature;humidity
1896;DHT22;1455;51.440;7.308;2022-12-11T07:21:06;2.10;99.90
1896;DHT22;1455;51.440;7.308;2022-12-11T07:23:53;2.10;99.90
1896;DHT22;1455;51.440;7.308;2022-12-11T07:26:39;2.10;99.90
1896;DHT22;1455;51.440;7.308;2022-12-11T07:29:24;2.10;99.90
1896;DHT22;1455;51.440;7.308;2022-12-11T07:32:10;2.00;99.90
1896;DHT22;1455;51.440;7.308;2022-12-11T07:34:55;2.00;99.90
1896;DHT22;1455;51.440;7.308;2022-12-11T09:00:30;2.20;99.90
1896;DHT22;1455;51.440;7.308;2022-12-11T09:03:17;2.20;99.90
1896;DHT22;1455;51.440;7.308;2022-12-11T09:06:07;2.30;99.90
1896;DHT22;1455;51.440;7.308;2022-12-11T09:08:54;2.40;99.90
1896;DHT22;1455;51.440;7.308;2022-12-11T11:30:00;2.30;99.90
1896;DHT22;1455;51.440;7.308;2022-12-11T11:32:49;2.40;99.90
1896;DHT22;1455;51.440;7.308;2022-12-11T11:35:36;2.40;99.90
1896;DHT22;1455;51.440;7.308;2022-12-11T11:38:22;2.50;99.90
1896;DHT22;1455;51.440;7.308;2022-12-11T11:41:12;2.50;99.90
1896;DHT22;1455;51.440;7.308;2022-12-11T11:44:02;2.50;99.90
1896;DHT22;1455;51.440;7.308;2022-12-11T11:46:56;2.50;99.90
1896;DHT22;1455;51.440;7.308;2022-12-11T11:49:54;2.60;99.90
1896;DHT22;1455;51.440;7.308;2022-12-11T11:52:42;2.60;99.90
1896;DHT22;1455;51.440;7.308;2022-12-11T11:55:37;2.60;99.90
1896;DHT22;1455;51.440;7.308;2022-12-11T11:58:31;2.70;99.90
1896;DHT22;1455;51.440;7.308;2022-12-11T12:01:25;2.60;99.90
1896;DHT22;1455;51.440;7.308;2022-12-11T12:04:13;2.70;99.90
1896;DHT22;1455;51.440;7.308;2022-12-11T12:07:09;2.60;99.90
1896;DHT22;1455;51.440;7.308;2022-12-11T12:10:08;2.60;99.90
1896;DHT22;1455;51.440;7.308;2022-12-11T12:13:00;2.50;99.90
1896;DHT22;1455;51.440;7.308;2022-12-11T12:15:53;2.60;99.90
1896;DHT22;1455;51.440;7.308;2022-12-11T12:18:42;2.60;99.90
1896;DHT22;1455;51.440;7.308;2022-12-11T12:21:50;2.60;99.90
1896;DHT22;1455;51.440;7.308;2022-12-11T12:24:39;2.60;99.90
1896;DHT22;1455;51.440;7.308;2022-12-11T12:27:31;2.70;99.90
1896;DHT22;1455;51.440;7.308;2022-12-11T12:30:44;2.60;99.90
1896;DHT22;1455;51.440;7.308;2022-12-11T12:33:46;2.70;99.90
1896;DHT22;1455;51.440;7.308;2022-12-11T12:36:40;2.70;99.90
1896;DHT22;1455;51.440;7.308;2022-12-11T12:39:38;2.80;99.90
1896;DHT22;1455;51.440;7.308;2022-12-11T12:42:37;2.80;99.90
1896;DHT22;1455;51.440;7.308;2022-12-11T12:45:29;2.90;99.90
1896;DHT22;1455;51.440;7.308;2022-12-11T12:48:17;2.90;99.90
1896;DHT22;1455;51.440;7.308;2022-12-11T12:51:04;2.70;99.90
1896;DHT22;1455;51.440;7.308;2022-12-11T12:53:53;2.80;99.90
1896;DHT22;1455;51.440;7.308;2022-12-11T12:56:53;2.80;99.90
1896;DHT22;1455;51.440;7.308;2022-12-11T12:59:40;2.60;99.90
1896;DHT22;1455;51.440;7.308;2022-12-11T13:02:28;2.60;99.90
1896;DHT22;1455;51.440;7.308;2022-12-11T13:05:30;2.80;99.90
1896;DHT22;1455;51.440;7.308;2022-12-11T13:08:22;2.80;99.90
1896;DHT22;1455;51.440;7.308;2022-12-11T13:11:30;2.90;99.90
1896;DHT22;1455;51.440;7.308;2022-12-11T13:14:30;2.80;99.90
1896;DHT22;1455;51.440;7.308;2022-12-11T13:17:25;2.80;99.90
1896;DHT22;1455;51.440;7.308;2022-12-11T13:20:46;2.90;99.90
1896;DHT22;1455;51.440;7.308;2022-12-11T13:23:34;2.80;99.90
1896;DHT22;1455;51.440;7.308;2022-12-11T13:26:31;2.90;99.90
1896;DHT22;1455;51.440;7.308;2022-12-11T13:29:40;3.00;99.90
1896;DHT22;1455;51.440;7.308;2022-12-11T13:32:29;3.00;99.90
1896;DHT22;1455;51.440;7.308;2022-12-11T13:35:16;2.90;99.90
1896;DHT22;1455;51.440;7.308;2022-12-11T13:38:06;2.90;99.90
1896;DHT22;1455;51.440;7.308;2022-12-11T13:40:54;2.80;99.90
1896;DHT22;1455;51.440;7.308;2022-12-11T13:43:56;2.60;99.90
1896;DHT22;1455;51.440;7.308;2022-12-11T13:46:44;2.60;99.90
1896;DHT22;1455;51.440;7.308;2022-12-11T13:49:33;2.60;99.90
1896;DHT22;1455;51.440;7.308;2022-12-11T13:52:21;2.60;99.90
1896;DHT22;1455;51.440;7.308;2022-12-11T13:55:19;2.60;99.90
1896;DHT22;1455;51.440;7.308;2022-12-11T13:58:17;2.60;99.90
1896;DHT22;1455;51.440;7.308;2022-12-11T14:01:06;2.30;99.90
1896;DHT22;1455;51.440;7.308;2022-12-11T14:03:56;2.30;99.90
1896;DHT22;1455;51.440;7.308;2022-12-11T14:06:51;2.10;99.90
1896;DHT22;1455;51.440;7.308;2022-12-11T14:09:41;2.10;99.90
1896;DHT22;1455;51.440;7.308;2022-12-11T14:12:28;2.30;99.90
1896;DHT22;1455;51.440;7.308;2022-12-11T14:15:15;2.30;99.90
1896;DHT22;1455;51.440;7.308;2022-12-11T14:18:01;2.30;99.90
1896;DHT22;1455;51.440;7.308;2022-12-11T14:20:52;2.40;99.90
1896;DHT22;1455;51.440;7.308;2022-12-11T14:23:38;2.50;99.90
1896;DHT22;1455;51.440;7.308;2022-12-11T14:26:25;2.60;99.90
1896;DHT22;1455;51.440;7.308;2022-12-11T14:29:26;2.70;99.90
1896;DHT22;1455;51.440;7.308;2022-12-11T14:32:18;2.80;99.90
1896;DHT22;1455;51.440;7.308;2022-12-11T14:35:05;2.90;99.90
1896;DHT22;1455;51.440;7.308;2022-12-11T14:37:57;2.80;99.90
1896;DHT22;1455;51.440;7.308;2022-12-11T14:40:47;2.80;99.90
1896;DHT22;1455;51.440;7.308;2022-12-11T14:43:35;2.90;99.90
1896;DHT22;1455;51.440;7.308;2022-12-11T14:46:24;3.00;99.90
1896;DHT22;1455;51.440;7.308;2022-12-11T14:49:30;3.00;99.90
1896;DHT22;1455;51.440;7.308;2022-12-11T14:52:20;2.90;99.90
1896;DHT22;1455;51.440;7.308;2022-12-11T14:55:12;2.90;99.90
1896;DHT22;1455;51.440;7.308;2022-12-11T14:58:00;3.00;99.90
1896;DHT22;1455;51.440;7.308;2022-12-11T15:00:58;3.00;99.90
1896;DHT22;1455;51.440;7.308;2022-12-11T15:03:44;3.00;99.90
1896;DHT22;1455;51.440;7.308;2022-12-11T15:06:31;3.00;99.90
1896;DHT22;1455;51.440;7.308;2022-12-11T15:09:26;2.90;99.90
1896;DHT22;1455;51.440;7.308;2022-12-11T15:12:15;2.80;99.90
1896;DHT22;1455;51.440;7.308;2022-12-11T15:15:20;2.90;99.90
1896;DHT22;1455;51.440;7.308;2022-12-11T15:18:21;2.90;99.90
1896;DHT22;1455;51.440;7.308;2022-12-11T15:21:12;2.80;99.90
1896;DHT22;1455;51.440;7.308;2022-12-11T15:24:21;2.80;99.90
1896;DHT22;1455;51.440;7.308;2022-12-11T15:27:23;2.80;99.90
1896;DHT22;1455;51.440;7.308;2022-12-11T15:30:28;2.90;99.90
1896;DHT22;1455;51.440;7.308;2022-12-11T15:33:19;3.00;99.90
1896;DHT22;1455;51.440;7.308;2022-12-11T15:36:21;3.10;99.90
1896;DHT22;1455;51.440;7.308;2022-12-11T15:39:08;3.00;99.90
1896;DHT22;1455;51.440;7.308;2022-12-11T15:41:53;3.00;99.90
1896;DHT22;1455;51.440;7.308;2022-12-11T15:44:41;3.00;99.90
1896;DHT22;1455;51.440;7.308;2022-12-11T15:47:28;3.00;99.90
1896;DHT22;1455;51.440;7.308;2022-12-11T15:50:15;3.00;99.90
1896;DHT22;1455;51.440;7.308;2022-12-11T15:53:01;3.00;99.90
1896;DHT22;1455;51.440;7.308;2022-12-11T15:55:47;3.10;99.90
1896;DHT22;1455;51.440;7.308;2022-12-11T15:58:34;2.90;99.90
1896;DHT22;1455;51.440;7.308;2022-12-11T16:01:21;2.90;99.90
1896;DHT22;1455;51.440;7.308;2022-12-11T16:04:06;2.90;99.90
1896;DHT22;1455;51.440;7.308;2022-12-11T16:06:52;3.00;99.90
1896;DHT22;1455;51.440;7.308;2022-12-11T16:09:38;2.90;99.90
1896;DHT22;1455;51.440;7.308;2022-12-11T16:12:24;2.90;99.90
1896;DHT22;1455;51.440;7.308;2022-12-11T16:15:10;2.90;99.90
1896;DHT22;1455;51.440;7.308;2022-12-11T16:18:02;2.90;99.90
1896;DHT22;1455;51.440;7.308;2022-12-11T16:20:49;2.90;99.90
1896;DHT22;1455;51.440;7.308;2022-12-11T16:23:35;2.90;99.90
1896;DHT22;1455;51.440;7.308;2022-12-11T16:26:21;2.90;99.90
1896;DHT22;1455;51.440;7.308;2022-12-11T16:29:08;2.90;99.90
1896;DHT22;1455;51.440;7.308;2022-12-11T16:31:54;2.80;99.90
1896;DHT22;1455;51.440;7.308;2022-12-11T16:34:41;2.90;99.90
1896;DHT22;1455;51.440;7.308;2022-12-11T16:37:28;3.00;99.90
1896;DHT22;1455;51.440;7.308;2022-12-11T16:40:14;3.00;99.90
1896;DHT22;1455;51.440;7.308;2022-12-11T16:43:01;2.80;99.90
1896;DHT22;1455;51.440;7.308;2022-12-11T16:45:47;2.80;99.90
1896;DHT22;1455;51.440;7.308;2022-12-11T16:48:37;2.80;99.90
1896;DHT22;1455;51.440;7.308;2022-12-11T16:51:24;2.80;99.90
1896;DHT22;1455;51.440;7.308;2022-12-11T16:54:27;2.80;99.90
1896;DHT22;1455;51.440;7.308;2022-12-11T16:57:15;2.80;99.90
1896;DHT22;1455;51.440;7.308;2022-12-11T17:00:01;2.70;99.90
1896;DHT22;1455;51.440;7.308;2022-12-11T17:02:48;2.90;99.90
1896;DHT22;1455;51.440;7.308;2022-12-11T17:05:34;2.70;99.90
1896;DHT22;1455;51.440;7.308;2022-12-11T17:08:21;2.70;99.90
1896;DHT22;1455;51.440;7.308;2022-12-11T17:11:08;2.70;99.90
1896;DHT22;1455;51.440;7.308;2022-12-11T17:13:58;2.80;99.90
1896;DHT22;1455;51.440;7.308;2022-12-11T17:16:44;2.70;99.90
1896;DHT22;1455;51.440;7.308;2022-12-11T17:19:32;2.70;99.90
1896;DHT22;1455;51.440;7.308;2022-12-11T17:22:18;2.70;99.90
1896;DHT22;1455;51.440;7.308;2022-12-11T17:25:35;2.70;99.90
1896;DHT22;1455;51.440;7.308;2022-12-11T17:28:23;2.70;99.90
1896;DHT22;1455;51.440;7.308;2022-12-11T17:31:12;2.70;99.90
1896;DHT22;1455;51.440;7.308;2022-12-11T17:34:00;2.60;99.90
1896;DHT22;1455;51.440;7.308;2022-12-11T17:36:46;2.50;99.90
1896;DHT22;1455;51.440;7.308;2022-12-11T17:39:49;2.50;99.90
